Time;durP1;ratioP1;P1;durP2;ratioP2;P2;SDS_P1;SDS_P2;PMS_P1;PMS_P2;Temp;Humidity;BMP_temperature;BMP_pressure;BME280_temperature;BME280_humidity;BME280_pressure;Samples;Min_cycle;Max_cycle;Signal;HPM_P1;HPM_P2
2023/02/11 00:04:25;;;;;;;;;;;17.20;44.40;;;;;;10117690;28;1903;-74
2023/02/11 00:09:20;;;;;;;;;;;17.20;44.50;;;;;;10117101;28;925;-74
2023/02/11 00:14:16;;;;;;;;;;;17.20;44.40;;;;;;10118130;28;977;-74
2023/02/11 00:19:11;;;;;;;;;;;17.20;44.50;;;;;;10117379;28;794;-74
2023/02/11 00:24:07;;;;;;;;;;;17.20;44.40;;;;;;10117857;28;1961;-74
2023/02/11 00:29:02;;;;;;;;;;;17.20;44.40;;;;;;10117878;28;767;-74
2023/02/11 00:33:57;;;;;;;;;;;17.20;44.40;;;;;;10123417;28;781;-74
2023/02/11 00:38:53;;;;;;;;;;;17.20;44.30;;;;;;10124526;28;865;-74
2023/02/11 00:43:48;;;;;;;;;;;17.20;44.30;;;;;;10123386;28;1910;-74
2023/02/11 00:48:43;;;;;;;;;;;17.20;44.20;;;;;;10123391;28;834;-74
2023/02/11 00:53:39;;;;;;;;;;;17.20;44.30;;;;;;10123858;28;868;-74
2023/02/11 00:58:34;;;;;;;;;;;17.20;44.30;;;;;;10123121;28;855;-74
2023/02/11 01:03:30;;;;;;;;;;;17.20;44.40;;;;;;10123009;28;842;-74
2023/02/11 01:08:25;;;;;;;;;;;17.20;44.30;;;;;;10122697;28;1903;-74
2023/02/11 01:13:20;;;;;;;;;;;17.20;44.40;;;;;;10123248;28;882;-74
2023/02/11 01:18:16;;;;;;;;;;;17.20;44.30;;;;;;10122490;28;758;-74
2023/02/11 01:23:11;;;;;;;;;;;17.20;44.40;;;;;;10123214;28;850;-74
2023/02/11 01:28:06;;;;;;;;;;;17.20;44.30;;;;;;10122135;28;1902;-74
2023/02/11 01:33:02;;;;;;;;;;;17.10;44.30;;;;;;10122818;28;855;-74
2023/02/11 01:37:57;;;;;;;;;;;17.20;44.30;;;;;;10121891;28;849;-74
2023/02/11 01:42:53;;;;;;;;;;;17.20;44.20;;;;;;10121723;28;1100;-74
2023/02/11 01:47:48;;;;;;;;;;;17.10;44.20;;;;;;10121641;28;1914;-74
2023/02/11 01:52:46;;;;;;;;;;;17.10;44.20;;;;;;10121467;28;769;-74
2023/02/11 01:57:41;;;;;;;;;;;17.10;44.10;;;;;;10121225;28;889;-74
2023/02/11 02:02:36;;;;;;;;;;;17.10;44.10;;;;;;10121122;28;937;-74
2023/02/11 02:07:32;;;;;;;;;;;17.10;44.20;;;;;;10120900;28;1891;-74
2023/02/11 02:12:27;;;;;;;;;;;17.10;44.20;;;;;;10121391;28;826;-75
2023/02/11 02:17:22;;;;;;;;;;;17.10;44.20;;;;;;10120733;28;956;-74
2023/02/11 02:22:18;;;;;;;;;;;17.10;44.20;;;;;;10120594;28;845;-74
2023/02/11 02:27:13;;;;;;;;;;;17.10;44.20;;;;;;10119713;28;1903;-74
2023/02/11 02:32:09;;;;;;;;;;;17.10;44.20;;;;;;10120655;28;911;-74
2023/02/11 02:37:04;;;;;;;;;;;17.10;44.20;;;;;;10120642;28;898;-74
2023/02/11 02:41:59;;;;;;;;;;;17.10;44.10;;;;;;10119836;28;1249;-74
2023/02/11 02:46:55;;;;;;;;;;;17.10;44.10;;;;;;10120350;28;1902;-74
2023/02/11 02:51:50;;;;;;;;;;;17.10;44.20;;;;;;10119690;28;862;-74
2023/02/11 02:56:46;;;;;;;;;;;17.10;44.10;;;;;;10120743;28;889;-74
2023/02/11 03:01:41;;;;;;;;;;;17.10;44.20;;;;;;10118843;28;1004;-74
2023/02/11 03:06:36;;;;;;;;;;;17.10;44.10;;;;;;10119438;28;1980;-74
2023/02/11 03:11:32;;;;;;;;;;;17.10;44.20;;;;;;10118847;28;931;-74
2023/02/11 03:16:27;;;;;;;;;;;17.10;44.20;;;;;;10119137;28;757;-74
2023/02/11 03:21:22;;;;;;;;;;;17.10;44.20;;;;;;10119469;28;962;-74
2023/02/11 03:26:18;;;;;;;;;;;17.10;44.20;;;;;;10118760;28;1902;-74
2023/02/11 03:31:13;;;;;;;;;;;17.10;44.10;;;;;;10118553;28;976;-74
2023/02/11 03:36:09;;;;;;;;;;;17.10;44.20;;;;;;10118537;28;758;-74
2023/02/11 03:41:04;;;;;;;;;;;17.10;44.30;;;;;;10118020;28;1259;-74
2023/02/11 03:45:59;;;;;;;;;;;17.10;44.30;;;;;;10118213;28;1906;-74
2023/02/11 03:50:55;;;;;;;;;;;17.10;44.30;;;;;;10118769;28;798;-74
2023/02/11 03:55:50;;;;;;;;;;;17.10;44.20;;;;;;10118047;28;996;-74
2023/02/11 04:00:45;;;;;;;;;;;17.10;44.30;;;;;;10117955;28;832;-74
2023/02/11 04:05:41;;;;;;;;;;;17.10;44.30;;;;;;10119100;28;1962;-74
2023/02/11 04:10:36;;;;;;;;;;;17.10;44.30;;;;;;10125204;28;833;-74
2023/02/11 04:15:31;;;;;;;;;;;17.10;44.40;;;;;;10125067;28;779;-74
2023/02/11 04:20:27;;;;;;;;;;;17.10;44.30;;;;;;10124332;28;833;-74
2023/02/11 04:25:22;;;;;;;;;;;17.10;44.30;;;;;;10124731;28;1959;-74
2023/02/11 04:30:17;;;;;;;;;;;17.10;44.30;;;;;;10124771;28;861;-74
2023/02/11 04:35:13;;;;;;;;;;;17.10;44.40;;;;;;10124014;28;802;-74
2023/02/11 04:40:08;;;;;;;;;;;17.00;44.20;;;;;;10123739;28;948;-74
2023/02/11 04:45:03;;;;;;;;;;;17.00;45.10;;;;;;10124201;28;1919;-74
2023/02/11 04:49:59;;;;;;;;;;;17.00;44.50;;;;;;10123985;28;817;-74
2023/02/11 04:54:54;;;;;;;;;;;17.00;44.50;;;;;;10122639;28;1384;-74
2023/02/11 04:59:50;;;;;;;;;;;17.00;44.40;;;;;;10123149;28;775;-74
2023/02/11 05:04:45;;;;;;;;;;;17.00;44.50;;;;;;10123388;28;1907;-74
2023/02/11 05:09:40;;;;;;;;;;;17.00;44.50;;;;;;10122760;28;825;-74
2023/02/11 05:14:36;;;;;;;;;;;17.00;44.60;;;;;;10123334;28;853;-74
2023/02/11 05:19:31;;;;;;;;;;;17.00;44.60;;;;;;10136943;28;761;-74
2023/02/11 05:24:26;;;;;;;;;;;17.00;44.50;;;;;;10122293;28;1957;-74
2023/02/11 05:29:22;;;;;;;;;;;17.10;44.50;;;;;;10122211;28;948;-74
2023/02/11 05:34:17;;;;;;;;;;;17.10;44.40;;;;;;10122273;28;873;-74
2023/02/11 05:39:12;;;;;;;;;;;17.10;44.50;;;;;;10122511;28;899;-74
2023/02/11 05:44:08;;;;;;;;;;;17.20;44.50;;;;;;10122260;28;1969;-74
2023/02/11 05:49:04;;;;;;;;;;;17.20;44.50;;;;;;10122165;28;869;-71
2023/02/11 05:53:59;;;;;;;;;;;17.20;44.40;;;;;;10121564;28;838;-72
2023/02/11 05:58:55;;;;;;;;;;;17.20;44.50;;;;;;10121317;28;947;-72
2023/02/11 06:03:50;;;;;;;;;;;17.20;44.50;;;;;;10121674;28;1902;-72
2023/02/11 06:08:45;;;;;;;;;;;17.20;44.40;;;;;;10121087;28;798;-72
2023/02/11 06:13:41;;;;;;;;;;;17.20;44.50;;;;;;10121600;28;1032;-75
2023/02/11 06:18:36;;;;;;;;;;;17.20;44.50;;;;;;10121336;28;876;-72
2023/02/11 06:23:31;;;;;;;;;;;17.20;44.50;;;;;;10120547;28;834;-73
2023/02/11 06:28:27;;;;;;;;;;;17.20;44.60;;;;;;10120047;28;1968;-71
2023/02/11 06:33:22;;;;;;;;;;;17.20;44.40;;;;;;10121434;28;904;-72
2023/02/11 06:38:17;;;;;;;;;;;17.20;44.40;;;;;;10120118;28;896;-72
2023/02/11 06:43:13;;;;;;;;;;;17.20;44.40;;;;;;10119433;28;1307;-71
2023/02/11 06:48:08;;;;;;;;;;;17.20;44.40;;;;;;10119770;28;1976;-71
2023/02/11 06:53:04;;;;;;;;;;;17.20;44.50;;;;;;10120464;28;863;-72
2023/02/11 06:57:59;;;;;;;;;;;17.20;44.50;;;;;;10119326;28;760;-73
2023/02/11 07:02:54;;;;;;;;;;;17.20;44.40;;;;;;10119432;28;886;-71
2023/02/11 07:07:50;;;;;;;;;;;17.20;44.60;;;;;;10119847;28;1910;-71
2023/02/11 07:12:45;;;;;;;;;;;17.20;44.50;;;;;;10119156;28;917;-72
2023/02/11 07:17:40;;;;;;;;;;;17.20;44.40;;;;;;10119054;28;924;-73
2023/02/11 07:22:36;;;;;;;;;;;17.20;44.40;;;;;;10120085;28;897;-71
2023/02/11 07:27:31;;;;;;;;;;;17.20;44.40;;;;;;10119272;28;1960;-71
2023/02/11 07:32:27;;;;;;;;;;;17.20;44.50;;;;;;10118587;28;892;-71
2023/02/11 07:37:22;;;;;;;;;;;17.20;44.50;;;;;;10118542;28;897;-72
2023/02/11 07:42:17;;;;;;;;;;;17.20;44.50;;;;;;10122405;28;1474;-76
2023/02/11 07:47:13;;;;;;;;;;;17.20;44.50;;;;;;10126049;28;1972;-72
2023/02/11 07:52:08;;;;;;;;;;;17.20;44.60;;;;;;10124016;28;1113;-72
2023/02/11 07:57:03;;;;;;;;;;;17.10;44.50;;;;;;10126129;28;855;-71
2023/02/11 08:01:59;;;;;;;;;;;17.20;44.60;;;;;;10124913;28;859;-72
2023/02/11 08:06:56;;;;;;;;;;;17.30;45.10;;;;;;10124705;28;1970;-71
2023/02/11 08:11:51;;;;;;;;;;;17.40;45.60;;;;;;10125186;28;1721;-74
2023/02/11 08:16:46;;;;;;;;;;;17.50;46.30;;;;;;10123805;28;964;-74
2023/02/11 08:21:42;;;;;;;;;;;17.50;45.80;;;;;;10124847;28;978;-74
2023/02/11 08:26:37;;;;;;;;;;;17.60;46.50;;;;;;10124723;28;1919;-74
2023/02/11 08:31:33;;;;;;;;;;;17.60;46.10;;;;;;10123495;28;949;-72
2023/02/11 08:36:28;;;;;;;;;;;17.50;46.20;;;;;;10123863;28;777;-74
2023/02/11 08:41:23;;;;;;;;;;;17.60;46.50;;;;;;10123733;28;1942;-70
2023/02/11 08:46:19;;;;;;;;;;;17.50;46.60;;;;;;10124167;28;1975;-73
2023/02/11 08:51:14;;;;;;;;;;;17.50;46.60;;;;;;10123794;28;934;-74
2023/02/11 08:56:09;;;;;;;;;;;17.60;46.90;;;;;;10123258;28;937;-73
2023/02/11 09:01:05;;;;;;;;;;;17.60;46.80;;;;;;10123109;28;867;-78
2023/02/11 09:06:00;;;;;;;;;;;17.60;46.90;;;;;;10122837;28;1898;-73
2023/02/11 09:10:55;;;;;;;;;;;17.50;46.80;;;;;;10122637;28;922;-74
2023/02/11 09:15:51;;;;;;;;;;;17.60;47.30;;;;;;10122616;28;876;-74
2023/02/11 09:20:46;;;;;;;;;;;17.60;46.50;;;;;;10122894;28;1149;-77
2023/02/11 09:25:42;;;;;;;;;;;17.70;46.60;;;;;;10122452;28;1902;-77
2023/02/11 09:30:37;;;;;;;;;;;17.60;46.50;;;;;;10122205;28;875;-77
2023/02/11 09:35:33;;;;;;;;;;;17.60;46.50;;;;;;10121510;28;885;-73
2023/02/11 09:40:28;;;;;;;;;;;17.70;46.50;;;;;;10121017;28;1143;-77
2023/02/11 09:45:23;;;;;;;;;;;17.60;46.60;;;;;;10121794;28;1968;-77
2023/02/11 09:50:19;;;;;;;;;;;17.50;46.30;;;;;;10122899;28;879;-77
2023/02/11 09:55:14;;;;;;;;;;;17.50;46.50;;;;;;10121456;28;793;-77
2023/02/11 10:00:10;;;;;;;;;;;17.50;46.50;;;;;;10121504;28;758;-77
2023/02/11 10:05:05;;;;;;;;;;;17.60;46.50;;;;;;10121027;28;1899;-77
2023/02/11 10:10:00;;;;;;;;;;;17.60;46.60;;;;;;10121622;28;932;-77
2023/02/11 10:14:56;;;;;;;;;;;17.40;46.60;;;;;;10120813;28;996;-78
2023/02/11 10:19:51;;;;;;;;;;;17.40;46.70;;;;;;10120734;28;770;-75
2023/02/11 10:24:46;;;;;;;;;;;17.40;46.60;;;;;;10120506;28;1956;-79
2023/02/11 10:29:42;;;;;;;;;;;17.40;46.70;;;;;;10121327;28;826;-78
2023/02/11 10:34:37;;;;;;;;;;;17.40;46.70;;;;;;10119608;28;1011;-78
2023/02/11 10:39:33;;;;;;;;;;;17.50;46.90;;;;;;10120751;28;798;-78
2023/02/11 10:44:28;;;;;;;;;;;17.60;46.80;;;;;;10120330;28;1981;-78
2023/02/11 10:49:23;;;;;;;;;;;17.50;46.90;;;;;;10119319;28;834;-78
2023/02/11 10:54:20;;;;;;;;;;;17.50;46.90;;;;;;10119145;28;818;-77
2023/02/11 10:59:15;;;;;;;;;;;17.50;46.80;;;;;;10118986;28;837;-75
2023/02/11 11:04:10;;;;;;;;;;;17.50;47.00;;;;;;10119947;28;1952;-76
2023/02/11 11:09:06;;;;;;;;;;;17.50;47.20;;;;;;10119308;28;806;-78
2023/02/11 11:14:02;;;;;;;;;;;17.50;47.20;;;;;;10119545;28;861;-77
2023/02/11 11:18:57;;;;;;;;;;;17.40;47.30;;;;;;10118255;28;864;-79
2023/02/11 11:23:53;;;;;;;;;;;17.30;47.30;;;;;;10118871;28;1907;-79
2023/02/11 11:28:48;;;;;;;;;;;17.30;47.30;;;;;;10118756;28;762;-78
2023/02/11 11:33:44;;;;;;;;;;;17.20;47.30;;;;;;10119482;28;925;-79
2023/02/11 11:38:40;;;;;;;;;;;17.20;47.10;;;;;;10118668;28;866;-79
2023/02/11 11:43:36;;;;;;;;;;;17.20;47.10;;;;;;10118535;28;1397;-79
2023/02/11 11:48:31;;;;;;;;;;;17.20;47.10;;;;;;10118268;28;1970;-77
2023/02/11 11:53:27;;;;;;;;;;;17.30;47.00;;;;;;10118704;28;888;-77
2023/02/11 11:58:22;;;;;;;;;;;17.40;47.40;;;;;;10118396;28;868;-77
2023/02/11 12:03:17;;;;;;;;;;;17.40;47.50;;;;;;10117784;28;765;-77
2023/02/11 12:08:13;;;;;;;;;;;17.40;47.50;;;;;;10117565;28;1960;-77
2023/02/11 12:13:08;;;;;;;;;;;17.40;47.40;;;;;;10118081;28;990;-77
2023/02/11 12:18:04;;;;;;;;;;;17.40;47.50;;;;;;10117428;28;846;-77
2023/02/11 12:22:59;;;;;;;;;;;17.40;47.40;;;;;;10118056;28;778;-77
2023/02/11 12:27:54;;;;;;;;;;;17.50;47.40;;;;;;10119476;28;1919;-76
2023/02/11 12:32:50;;;;;;;;;;;17.50;47.40;;;;;;10124437;28;858;-77
2023/02/11 12:37:45;;;;;;;;;;;17.50;47.40;;;;;;10124267;28;833;-77
2023/02/11 12:47:55;;;;;;;;;;;17.50;47.40;;;;;;10122659;28;1914;-78
2023/02/11 12:52:50;;;;;;;;;;;17.50;47.40;;;;;;10123141;28;786;-79
2023/02/11 12:57:45;;;;;;;;;;;17.50;47.50;;;;;;10123904;28;942;-78
2023/02/11 13:02:42;;;;;;;;;;;17.40;48.20;;;;;;10123565;28;904;-77
2023/02/11 13:07:37;;;;;;;;;;;17.50;47.70;;;;;;10123470;28;1961;-78
2023/02/11 13:17:46;;;;;;;;;;;17.50;47.70;;;;;;10122036;28;683;-79
2023/02/11 13:22:42;;;;;;;;;;;17.50;47.70;;;;;;10122660;28;815;-78
2023/02/11 13:27:37;;;;;;;;;;;17.50;47.80;;;;;;10122247;28;1910;-77
2023/02/11 13:32:32;;;;;;;;;;;17.50;47.70;;;;;;10122229;28;790;-76
2023/02/11 13:37:28;;;;;;;;;;;17.40;48.00;;;;;;10122631;28;781;-76
2023/02/11 13:42:23;;;;;;;;;;;17.30;47.90;;;;;;10121355;28;1204;-76
2023/02/11 13:47:18;;;;;;;;;;;17.30;47.80;;;;;;10122306;28;1922;-74
2023/02/11 13:52:14;;;;;;;;;;;17.30;47.80;;;;;;10121482;28;865;-74
2023/02/11 13:57:09;;;;;;;;;;;17.30;47.80;;;;;;10121574;28;943;-74
2023/02/11 14:12:32;;;;;;;;;;;17.30;47.70;;;;;;10120439;28;621;-74
2023/02/11 14:17:30;;;;;;;;;;;17.30;47.70;;;;;;10121093;28;873;-74
2023/02/11 14:22:25;;;;;;;;;;;17.30;47.70;;;;;;10120404;28;885;-74
2023/02/11 14:27:21;;;;;;;;;;;17.30;47.70;;;;;;10120077;28;1906;-74
2023/02/11 14:32:17;;;;;;;;;;;17.20;47.70;;;;;;10120333;28;885;-74
2023/02/11 14:37:12;;;;;;;;;;;17.20;47.70;;;;;;10119676;28;1043;-72
2023/02/11 14:42:08;;;;;;;;;;;17.20;47.70;;;;;;10119909;28;1375;-74
2023/02/11 14:47:03;;;;;;;;;;;17.20;47.80;;;;;;10117381;28;1977;-74
2023/02/11 14:51:58;;;;;;;;;;;17.20;47.80;;;;;;10119310;28;906;-74
2023/02/11 14:56:54;;;;;;;;;;;17.20;47.70;;;;;;10119108;28;866;-74
2023/02/11 15:01:49;;;;;;;;;;;17.20;47.70;;;;;;10119586;28;896;-74
2023/02/11 15:06:44;;;;;;;;;;;17.20;47.80;;;;;;10119313;28;1968;-74
2023/02/11 15:11:40;;;;;;;;;;;17.20;47.70;;;;;;10119412;28;1054;-74
2023/02/11 15:16:35;;;;;;;;;;;17.20;47.80;;;;;;10120322;28;905;-74
2023/02/11 15:21:30;;;;;;;;;;;17.20;47.70;;;;;;10118806;28;884;-77
2023/02/11 15:26:26;;;;;;;;;;;17.20;47.70;;;;;;10118865;28;1906;-74
2023/02/11 15:31:22;;;;;;;;;;;17.20;47.50;;;;;;10119408;28;786;-74
2023/02/11 15:36:17;;;;;;;;;;;17.20;47.60;;;;;;10118638;28;801;-74
2023/02/11 15:41:12;;;;;;;;;;;17.20;47.60;;;;;;10118514;28;1119;-75
2023/02/11 15:46:08;;;;;;;;;;;17.20;47.50;;;;;;10118958;28;1911;-74
2023/02/11 15:51:03;;;;;;;;;;;17.20;47.60;;;;;;10118350;28;889;-74
2023/02/11 15:55:59;;;;;;;;;;;17.20;47.50;;;;;;10118187;28;927;-74
2023/02/11 16:00:58;;;;;;;;;;;17.20;47.50;;;;;;10117709;28;814;-74
2023/02/11 16:05:58;;;;;;;;;;;17.20;47.50;;;;;;10125377;28;1898;-74
2023/02/11 16:10:57;;;;;;;;;;;17.20;47.50;;;;;;10124846;28;871;-74
2023/02/11 16:15:52;;;;;;;;;;;17.10;47.40;;;;;;10124664;28;1209;-74
2023/02/11 16:20:47;;;;;;;;;;;17.20;47.50;;;;;;10124818;28;998;-74
2023/02/11 16:25:43;;;;;;;;;;;17.20;47.40;;;;;;10124195;28;1906;-74
2023/02/11 16:30:39;;;;;;;;;;;17.20;47.40;;;;;;10125440;28;873;-74
2023/02/11 16:35:36;;;;;;;;;;;17.20;47.40;;;;;;10124493;28;783;-74
2023/02/11 16:40:31;;;;;;;;;;;17.20;47.30;;;;;;10123839;28;1577;-74
2023/02/11 16:45:26;;;;;;;;;;;17.20;47.40;;;;;;10123953;28;1899;-75
2023/02/11 16:50:22;;;;;;;;;;;17.20;47.40;;;;;;10123371;28;817;-75
2023/02/11 16:55:17;;;;;;;;;;;17.20;47.50;;;;;;10123436;28;932;-74
2023/02/11 17:00:12;;;;;;;;;;;17.20;47.50;;;;;;10123324;28;810;-74
2023/02/11 17:05:08;;;;;;;;;;;17.10;47.40;;;;;;10123638;28;1898;-75
2023/02/11 17:10:03;;;;;;;;;;;17.20;48.00;;;;;;10122994;28;929;-75
2023/02/11 17:14:59;;;;;;;;;;;17.10;47.30;;;;;;10122227;28;952;-75
2023/02/11 17:19:54;;;;;;;;;;;17.10;47.40;;;;;;10122474;28;798;-75
2023/02/11 17:24:49;;;;;;;;;;;17.20;47.30;;;;;;10122455;28;1898;-75
2023/02/11 17:29:45;;;;;;;;;;;17.20;47.30;;;;;;10122404;28;788;-75
2023/02/11 17:34:40;;;;;;;;;;;17.20;47.30;;;;;;10122182;28;850;-75
2023/02/11 17:39:35;;;;;;;;;;;17.10;47.20;;;;;;10122063;28;928;-75
2023/02/11 17:44:31;;;;;;;;;;;17.20;47.30;;;;;;10121668;28;1966;-75
2023/02/11 17:49:26;;;;;;;;;;;17.10;47.20;;;;;;10121286;28;859;-75
2023/02/11 17:54:22;;;;;;;;;;;17.10;47.20;;;;;;10122197;28;990;-75
2023/02/11 17:59:17;;;;;;;;;;;17.10;47.20;;;;;;10120878;28;1070;-75
2023/02/11 18:04:12;;;;;;;;;;;17.20;47.20;;;;;;10121822;28;1898;-77
2023/02/11 18:09:08;;;;;;;;;;;17.10;47.20;;;;;;10121210;28;724;-79
2023/02/11 18:14:03;;;;;;;;;;;17.20;47.20;;;;;;10121766;28;951;-78
2023/02/11 18:18:58;;;;;;;;;;;17.10;47.20;;;;;;10120986;28;835;-78
2023/02/11 18:23:55;;;;;;;;;;;17.10;47.10;;;;;;10120731;28;806;-78
2023/02/11 18:28:51;;;;;;;;;;;17.20;47.20;;;;;;10120553;28;1970;-78
2023/02/11 18:33:47;;;;;;;;;;;17.20;47.20;;;;;;10120174;28;1030;-76
2023/02/11 18:38:45;;;;;;;;;;;17.20;47.10;;;;;;10119887;28;976;-76
2023/02/11 18:43:41;;;;;;;;;;;17.50;48.10;;;;;;10119274;28;1253;-76
2023/02/11 18:48:37;;;;;;;;;;;17.60;48.20;;;;;;10119800;28;1910;-76
2023/02/11 18:53:32;;;;;;;;;;;17.70;48.20;;;;;;10134527;28;810;-74
2023/02/11 18:58:27;;;;;;;;;;;17.70;48.20;;;;;;10119715;28;999;-74
2023/02/11 19:03:23;;;;;;;;;;;17.70;48.20;;;;;;10119258;28;889;-74
2023/02/11 19:08:18;;;;;;;;;;;17.80;48.40;;;;;;10119078;28;1964;-77
2023/02/11 19:13:14;;;;;;;;;;;17.80;48.60;;;;;;10119029;28;856;-75
2023/02/11 19:18:09;;;;;;;;;;;17.80;48.70;;;;;;10119708;28;880;-76
2023/02/11 19:23:04;;;;;;;;;;;17.80;48.40;;;;;;10082245;28;1171;-81
2023/02/11 19:28:00;;;;;;;;;;;17.60;48.60;;;;;;10079651;28;1911;-80
2023/02/11 19:32:56;;;;;;;;;;;17.40;48.70;;;;;;10079590;28;1011;-80
2023/02/11 19:37:51;;;;;;;;;;;17.40;48.50;;;;;;10082573;28;893;-80
2023/02/11 19:42:47;;;;;;;;;;;17.40;48.60;;;;;;10085860;28;1372;-81
2023/02/11 19:47:42;;;;;;;;;;;17.30;48.40;;;;;;10086367;28;1978;-75
2023/02/11 19:52:37;;;;;;;;;;;17.30;48.30;;;;;;10085913;28;857;-75
2023/02/11 19:57:33;;;;;;;;;;;17.30;48.30;;;;;;10085353;28;821;-75
2023/02/11 20:02:29;;;;;;;;;;;17.30;48.10;;;;;;10085827;28;767;-75
2023/02/11 20:07:25;;;;;;;;;;;17.30;48.00;;;;;;10086470;28;1966;-75
2023/02/11 20:12:20;;;;;;;;;;;17.30;48.00;;;;;;10086152;28;830;-75
2023/02/11 20:17:16;;;;;;;;;;;17.30;48.00;;;;;;10085997;28;987;-72
2023/02/11 20:22:11;;;;;;;;;;;17.30;47.90;;;;;;10084995;28;822;-73
2023/02/11 20:27:07;;;;;;;;;;;17.30;47.90;;;;;;10084990;28;1906;-72
2023/02/11 20:32:02;;;;;;;;;;;17.30;47.70;;;;;;10084850;28;885;-73
2023/02/11 20:36:58;;;;;;;;;;;17.40;47.80;;;;;;10084775;28;856;-73
2023/02/11 20:41:53;;;;;;;;;;;17.40;47.80;;;;;;10084985;29;1398;-73
2023/02/11 20:46:49;;;;;;;;;;;17.30;47.70;;;;;;10083955;28;1977;-73
2023/02/11 20:51:44;;;;;;;;;;;17.30;47.80;;;;;;10084155;28;903;-75
2023/02/11 20:56:40;;;;;;;;;;;17.30;47.80;;;;;;10084688;28;783;-73
2023/02/11 21:01:35;;;;;;;;;;;17.30;47.80;;;;;;10084114;28;950;-73
2023/02/11 21:06:31;;;;;;;;;;;17.20;48.40;;;;;;10083265;28;1950;-74
2023/02/11 21:11:26;;;;;;;;;;;17.20;47.80;;;;;;10084253;28;1011;-76
2023/02/11 21:16:22;;;;;;;;;;;17.20;47.80;;;;;;10084225;28;822;-74
2023/02/11 21:21:17;;;;;;;;;;;17.10;47.80;;;;;;10083604;28;932;-79
2023/02/11 21:26:12;;;;;;;;;;;17.20;47.80;;;;;;10083588;28;1969;-73
2023/02/11 21:31:08;;;;;;;;;;;17.20;47.80;;;;;;10083086;28;802;-74
2023/02/11 21:36:03;;;;;;;;;;;17.20;47.80;;;;;;10082990;28;949;-74
2023/02/11 21:40:58;;;;;;;;;;;17.20;47.80;;;;;;10083060;28;1481;-75
2023/02/11 21:45:54;;;;;;;;;;;17.20;47.80;;;;;;10082620;28;1910;-75
2023/02/11 21:50:49;;;;;;;;;;;17.20;47.70;;;;;;10083139;28;881;-80
2023/02/11 21:55:44;;;;;;;;;;;17.10;47.80;;;;;;10083360;28;872;-76
2023/02/11 22:00:40;;;;;;;;;;;17.20;47.80;;;;;;10096330;28;806;-74
2023/02/11 22:05:35;;;;;;;;;;;17.10;48.30;;;;;;10082041;28;1970;-74
2023/02/11 22:10:30;;;;;;;;;;;17.20;47.70;;;;;;10081942;28;878;-74
2023/02/11 22:15:26;;;;;;;;;;;17.20;47.70;;;;;;10081192;28;1059;-74
2023/02/11 22:20:21;;;;;;;;;;;17.20;47.60;;;;;;10081699;28;920;-74
2023/02/11 22:25:17;;;;;;;;;;;17.20;47.60;;;;;;10081370;28;1953;-74
2023/02/11 22:30:13;;;;;;;;;;;17.20;47.60;;;;;;10081369;28;810;-74
2023/02/11 22:35:08;;;;;;;;;;;17.20;47.70;;;;;;10081703;28;975;-74
2023/02/11 22:40:03;;;;;;;;;;;17.20;47.70;;;;;;10081509;28;1005;-74
2023/02/11 22:44:59;;;;;;;;;;;17.20;47.70;;;;;;10082937;28;1986;-74
2023/02/11 22:49:54;;;;;;;;;;;17.20;47.60;;;;;;10081439;28;915;-74
2023/02/11 22:54:49;;;;;;;;;;;17.20;47.60;;;;;;10080092;28;1306;-74
2023/02/11 22:59:45;;;;;;;;;;;17.20;47.70;;;;;;10080328;28;814;-77
2023/02/11 23:04:41;;;;;;;;;;;17.10;47.70;;;;;;10078726;28;1935;-84
2023/02/11 23:09:37;;;;;;;;;;;17.20;47.70;;;;;;10079571;28;805;-85
2023/02/11 23:14:32;;;;;;;;;;;17.20;47.70;;;;;;10080230;28;896;-85
2023/02/11 23:19:27;;;;;;;;;;;17.10;47.70;;;;;;10080505;28;836;-84
2023/02/11 23:24:23;;;;;;;;;;;17.20;47.70;;;;;;10079649;28;1903;-79
2023/02/11 23:29:18;;;;;;;;;;;17.20;47.60;;;;;;10079711;28;752;-79
2023/02/11 23:34:16;;;;;;;;;;;17.20;47.60;;;;;;10079618;28;853;-77
2023/02/11 23:39:11;;;;;;;;;;;17.20;47.60;;;;;;10080550;28;864;-71
2023/02/11 23:44:06;;;;;;;;;;;17.20;47.60;;;;;;10079299;28;1728;-71
2023/02/11 23:49:02;;;;;;;;;;;17.20;47.70;;;;;;10078633;28;1898;-70
2023/02/11 23:53:57;;;;;;;;;;;17.20;47.60;;;;;;10079789;28;821;-70
2023/02/11 23:58:52;;;;;;;;;;;17.20;47.70;;;;;;10078438;28;838;-71
